createdAt,value
2018-07-03T00:02:06.056Z,27.36
2018-07-03T00:04:35.204Z,27.32
2018-07-03T00:07:04.448Z,27.26
2018-07-03T00:09:33.699Z,27.56
2018-07-03T00:12:02.914Z,27.68
2018-07-03T00:14:32.095Z,27.27
2018-07-03T00:17:06.223Z,26.81
2018-07-03T00:19:35.410Z,27.36
2018-07-03T00:22:04.559Z,27.73
2018-07-03T00:24:33.795Z,27.92
2018-07-03T00:27:03.042Z,27.61
2018-07-03T00:29:32.265Z,28.16
2018-07-03T00:32:01.527Z,27.90
2018-07-03T00:34:31.142Z,27.89
2018-07-03T00:37:00.742Z,28.15
2018-07-03T00:39:30.010Z,28.77
2018-07-03T00:41:59.797Z,28.83
2018-07-03T00:44:29.103Z,28.55
2018-07-03T00:46:58.462Z,28.92
2018-07-03T00:49:27.730Z,29.83
2018-07-03T00:51:57.023Z,29.36
2018-07-03T00:54:26.342Z,28.85
2018-07-03T00:56:55.606Z,28.92
2018-07-03T00:59:24.878Z,29.27
2018-07-03T01:01:54.199Z,29.26
2018-07-03T01:04:23.469Z,29.54
2018-07-03T01:06:52.723Z,29.79
2018-07-03T01:09:21.974Z,29.19
2018-07-03T01:11:51.323Z,29.11
2018-07-03T01:14:20.666Z,29.45
2018-07-03T01:16:49.903Z,28.90
2018-07-03T01:19:19.343Z,29.95
2018-07-03T01:21:48.542Z,33.39
2018-07-03T01:24:18.163Z,36.25
2018-07-03T01:26:47.453Z,35.82
2018-07-03T01:29:16.895Z,36.03
2018-07-03T01:31:46.962Z,34.86
2018-07-03T01:34:16.190Z,35.46
2018-07-03T01:36:45.483Z,35.24
2018-07-03T01:39:14.803Z,34.26
2018-07-03T01:41:44.065Z,34.17
2018-07-03T01:44:13.275Z,34.64
2018-07-03T01:46:42.446Z,34.28
2018-07-03T01:49:11.686Z,33.43
2018-07-03T01:51:41.083Z,33.79
2018-07-03T01:54:10.418Z,33.46
2018-07-03T01:56:39.746Z,33.47
2018-07-03T01:59:08.838Z,34.32
2018-07-03T02:01:38.089Z,34.13
2018-07-03T02:04:07.442Z,34.05
2018-07-03T02:06:36.688Z,34.89
2018-07-03T02:09:09.989Z,34.27
2018-07-03T02:11:39.562Z,33.92
2018-07-03T02:14:08.832Z,33.51
2018-07-03T02:16:38.106Z,33.52
2018-07-03T02:19:07.498Z,33.48
2018-07-03T02:21:36.893Z,33.48
2018-07-03T02:24:06.373Z,33.71
2018-07-03T02:26:35.716Z,32.99
2018-07-03T02:29:04.982Z,33.37
2018-07-03T02:31:34.223Z,33.08
2018-07-03T02:34:03.454Z,33.07
2018-07-03T02:36:32.818Z,32.92
2018-07-03T02:39:02.080Z,32.65
2018-07-03T02:41:31.405Z,32.79
2018-07-03T02:44:00.771Z,35.49
2018-07-03T02:46:29.995Z,34.92
2018-07-03T02:48:59.342Z,35.93
2018-07-03T02:51:28.620Z,37.96
2018-07-03T02:53:58.075Z,37.19
2018-07-03T02:56:27.308Z,37.29
2018-07-03T02:58:56.975Z,36.43
2018-07-03T03:01:26.303Z,38.16
2018-07-03T03:03:55.675Z,39.53
2018-07-03T03:06:24.927Z,38.11
2018-07-03T03:08:54.291Z,37.69
2018-07-03T03:11:24.419Z,37.50
2018-07-03T03:13:56.198Z,37.29
2018-07-03T03:16:25.623Z,37.18
2018-07-03T03:18:54.959Z,38.88
2018-07-03T03:21:24.304Z,39.15
2018-07-03T03:23:53.664Z,38.04
2018-07-03T03:26:22.989Z,38.92
2018-07-03T03:28:52.269Z,41.43
2018-07-03T03:31:21.347Z,40.60
2018-07-03T03:33:50.598Z,40.16
2018-07-03T03:36:19.861Z,39.33
2018-07-03T03:38:49.210Z,39.80
2018-07-03T03:41:18.494Z,40.28
2018-07-03T03:43:47.914Z,40.17
2018-07-03T03:46:17.173Z,37.24
2018-07-03T03:48:46.522Z,36.18
2018-07-03T03:51:15.859Z,35.84
2018-07-03T03:53:45.271Z,37.27
2018-07-03T03:56:14.575Z,37.51
2018-07-03T03:58:43.922Z,39.83
2018-07-03T04:01:13.215Z,41.44
2018-07-03T04:03:42.544Z,41.10
2018-07-03T04:06:11.763Z,39.93
2018-07-03T04:08:41.438Z,39.08
2018-07-03T04:11:11.002Z,38.49
2018-07-03T04:13:40.459Z,40.82
2018-07-03T04:16:09.691Z,39.92
2018-07-03T04:18:38.931Z,41.03
2018-07-03T04:21:08.861Z,41.03
2018-07-03T04:23:38.734Z,41.11
2018-07-03T04:26:07.922Z,40.67
2018-07-03T04:28:37.164Z,38.95
2018-07-03T04:31:06.426Z,37.09
2018-07-03T04:33:35.759Z,33.02
2018-07-03T04:36:04.907Z,32.34
2018-07-03T04:38:34.141Z,32.41
2018-07-03T04:41:03.504Z,34.28
2018-07-03T04:43:32.863Z,34.01
2018-07-03T04:46:02.138Z,33.37
2018-07-03T04:48:31.397Z,33.80
2018-07-03T04:51:00.641Z,34.28
2018-07-03T04:53:29.876Z,36.54
2018-07-03T04:55:59.246Z,36.45
2018-07-03T04:58:28.747Z,38.30
2018-07-03T05:00:58.064Z,37.69
2018-07-03T05:03:27.263Z,36.24
2018-07-03T05:05:56.573Z,36.27
2018-07-03T05:08:25.943Z,36.15
2018-07-03T05:10:55.286Z,38.22
2018-07-03T05:13:24.544Z,35.94
2018-07-03T05:15:53.904Z,35.50
2018-07-03T05:18:23.170Z,32.04
2018-07-03T05:20:52.482Z,33.90
2018-07-03T05:23:21.722Z,30.80
2018-07-03T05:25:51.081Z,29.15
2018-07-03T05:28:20.354Z,26.61
2018-07-03T05:30:49.793Z,26.91
2018-07-03T05:33:19.144Z,24.06
2018-07-03T05:35:48.488Z,22.85
2018-07-03T05:38:17.769Z,22.87
2018-07-03T05:40:47.105Z,22.78
2018-07-03T05:43:16.612Z,22.76
2018-07-03T05:45:45.674Z,24.19
2018-07-03T05:48:14.986Z,25.24
2018-07-03T05:50:44.294Z,26.92
2018-07-03T05:53:13.555Z,25.22
2018-07-03T05:55:42.895Z,24.94
2018-07-03T05:58:12.260Z,24.43
2018-07-03T06:00:41.588Z,21.51
2018-07-03T06:03:10.907Z,20.82
2018-07-03T06:05:40.167Z,20.47
2018-07-03T06:08:09.502Z,22.06
2018-07-03T06:10:38.771Z,23.14
2018-07-03T06:13:08.107Z,21.72
2018-07-03T06:15:37.359Z,20.85
2018-07-03T06:18:06.724Z,20.08
2018-07-03T06:20:36.095Z,21.28
2018-07-03T06:23:05.390Z,20.18
2018-07-03T06:25:34.664Z,20.18
2018-07-03T06:28:03.987Z,18.46
2018-07-03T06:30:33.255Z,17.06
2018-07-03T06:33:02.488Z,17.41
2018-07-03T06:35:31.747Z,18.92
2018-07-03T06:38:01.108Z,16.34
2018-07-03T06:40:30.446Z,13.98
2018-07-03T06:42:59.707Z,14.58
2018-07-03T06:45:28.999Z,18.18
2018-07-03T06:47:58.586Z,20.83
2018-07-03T06:50:27.876Z,19.29
2018-07-03T06:52:57.265Z,16.26
2018-07-03T06:55:26.596Z,17.13
2018-07-03T06:57:56.021Z,18.57
2018-07-03T07:00:25.366Z,18.15
2018-07-03T07:02:54.583Z,16.00
2018-07-03T07:05:24.021Z,16.64
2018-07-03T07:07:53.271Z,16.01
2018-07-03T07:10:22.525Z,17.07
2018-07-03T07:12:51.799Z,16.05
2018-07-03T07:15:21.358Z,18.45
2018-07-03T07:17:50.587Z,20.51
2018-07-03T07:20:19.927Z,21.03
2018-07-03T07:22:49.174Z,20.74
2018-07-03T07:25:18.526Z,19.81
2018-07-03T07:27:47.787Z,20.90
2018-07-03T07:30:17.127Z,21.45
2018-07-03T07:32:46.477Z,19.14
2018-07-03T07:35:15.822Z,19.67
2018-07-03T07:37:45.133Z,18.90
2018-07-03T07:40:14.566Z,17.20
2018-07-03T07:42:44.312Z,17.90
2018-07-03T07:45:13.753Z,17.66
2018-07-03T07:47:43.586Z,19.42
2018-07-03T07:50:12.961Z,19.27
2018-07-03T07:52:42.121Z,17.93
2018-07-03T07:55:11.387Z,16.75
2018-07-03T07:57:40.648Z,16.77
2018-07-03T08:00:09.990Z,16.57
2018-07-03T08:02:39.661Z,17.10
2018-07-03T08:05:09.099Z,17.45
2018-07-03T08:07:38.495Z,17.07
2018-07-03T08:10:07.807Z,17.06
2018-07-03T08:12:37.069Z,17.89
2018-07-03T08:15:06.388Z,19.00
2018-07-03T08:17:35.889Z,17.59
2018-07-03T08:20:05.562Z,16.23
2018-07-03T08:22:34.782Z,15.77
2018-07-03T08:25:04.006Z,16.82
2018-07-03T08:27:32.994Z,17.17
2018-07-03T08:30:01.947Z,16.97
2018-07-03T08:32:30.921Z,17.55
2018-07-03T08:35:00.820Z,17.29
2018-07-03T08:37:29.802Z,16.41
2018-07-03T08:39:58.826Z,15.64
2018-07-03T08:42:28.071Z,16.24
2018-07-03T08:44:57.324Z,17.38
2018-07-03T08:47:26.569Z,16.39
2018-07-03T08:49:55.826Z,16.73
2018-07-03T08:52:25.066Z,15.79
2018-07-03T08:54:54.642Z,17.14
2018-07-03T08:57:23.978Z,16.32
2018-07-03T08:59:53.264Z,15.77
2018-07-03T09:02:22.733Z,14.16
2018-07-03T09:04:52.061Z,14.59
2018-07-03T09:07:21.487Z,15.14
2018-07-03T09:09:50.762Z,15.43
2018-07-03T09:12:20.009Z,15.08
2018-07-03T09:14:49.274Z,13.69
2018-07-03T09:17:23.690Z,14.39
2018-07-03T09:19:52.972Z,13.88
2018-07-03T09:22:22.218Z,13.25
2018-07-03T09:24:51.458Z,14.08
2018-07-03T09:27:20.717Z,13.21
2018-07-03T09:29:50.115Z,13.55
2018-07-03T09:32:19.408Z,14.21
2018-07-03T09:34:48.659Z,12.54
2018-07-03T09:37:17.904Z,13.92
2018-07-03T09:39:47.208Z,14.41
2018-07-03T09:42:16.508Z,14.50
2018-07-03T09:44:45.905Z,13.35
2018-07-03T09:47:15.223Z,14.59
2018-07-03T09:49:44.597Z,14.41
2018-07-03T09:52:13.883Z,14.01
2018-07-03T09:54:43.138Z,13.33
2018-07-03T09:57:12.436Z,13.14
2018-07-03T09:59:41.738Z,12.05
2018-07-03T10:02:10.995Z,12.34
2018-07-03T10:04:40.336Z,12.64
2018-07-03T10:07:09.565Z,13.63
2018-07-03T10:09:38.944Z,13.95
2018-07-03T10:12:08.220Z,12.19
2018-07-03T10:14:37.625Z,12.06
2018-07-03T10:17:07.000Z,12.67
2018-07-03T10:19:36.326Z,11.71
2018-07-03T10:22:05.694Z,12.37
2018-07-03T10:24:34.926Z,13.26
2018-07-03T10:27:04.223Z,13.18
2018-07-03T10:29:33.626Z,13.99
2018-07-03T10:32:03.039Z,12.59
2018-07-03T10:34:32.320Z,11.90
2018-07-03T10:37:01.575Z,10.65
2018-07-03T10:39:30.934Z,11.72
2018-07-03T10:42:00.235Z,10.57
2018-07-03T10:44:29.675Z,10.28
2018-07-03T10:46:58.914Z,11.55
2018-07-03T10:49:28.265Z,12.92
2018-07-03T10:51:57.713Z,12.20
2018-07-03T10:54:26.938Z,11.94
2018-07-03T10:56:56.305Z,14.53
2018-07-03T10:59:25.554Z,12.54
2018-07-03T11:01:54.830Z,11.98
2018-07-03T11:04:24.162Z,11.42
2018-07-03T11:06:53.434Z,12.91
2018-07-03T11:09:22.792Z,10.92
2018-07-03T11:11:51.997Z,10.39
2018-07-03T11:14:21.239Z,9.25
2018-07-03T11:16:50.543Z,9.41
2018-07-03T11:19:19.916Z,9.42
2018-07-03T11:21:49.370Z,9.09
2018-07-03T11:24:18.891Z,10.04
2018-07-03T11:26:48.378Z,10.97
2018-07-03T11:29:17.629Z,11.41
2018-07-03T11:31:46.973Z,10.99
2018-07-03T11:34:16.922Z,9.75
2018-07-03T11:36:46.086Z,9.53
2018-07-03T11:39:15.436Z,9.97
2018-07-03T11:41:44.704Z,10.87
2018-07-03T11:44:13.947Z,10.66
2018-07-03T11:46:43.298Z,11.28
2018-07-03T11:49:12.701Z,10.83
2018-07-03T11:51:42.095Z,11.44
2018-07-03T11:54:11.476Z,10.56
2018-07-03T11:56:40.783Z,10.21
2018-07-03T11:59:10.067Z,9.91
2018-07-03T12:01:39.524Z,9.66
2018-07-03T12:04:08.954Z,9.46
2018-07-03T12:06:38.286Z,8.85
2018-07-03T12:09:09.974Z,9.39
2018-07-03T12:11:39.339Z,9.69
2018-07-03T12:14:09.694Z,9.52
2018-07-03T12:16:38.979Z,9.36
2018-07-03T12:19:08.410Z,8.71
2018-07-03T12:21:37.684Z,8.48
2018-07-03T12:24:07.067Z,8.49
2018-07-03T12:26:36.334Z,9.12
2018-07-03T12:29:06.057Z,8.60
2018-07-03T12:31:35.385Z,8.27
2018-07-03T12:34:04.811Z,9.32
2018-07-03T12:36:34.082Z,9.21
2018-07-03T12:39:03.875Z,9.03
2018-07-03T12:41:33.166Z,10.32
2018-07-03T12:44:02.467Z,8.65
2018-07-03T12:46:31.668Z,8.83
2018-07-03T12:49:01.006Z,8.31
2018-07-03T12:51:30.282Z,9.75
2018-07-03T12:53:59.626Z,8.32
2018-07-03T12:56:28.876Z,8.78
2018-07-03T12:58:58.146Z,8.52
2018-07-03T13:01:27.478Z,9.09
2018-07-03T13:03:56.810Z,9.33
2018-07-03T13:06:26.094Z,9.38
2018-07-03T13:08:55.426Z,9.57
2018-07-03T13:11:24.799Z,10.12
2018-07-03T13:13:54.124Z,8.47
2018-07-03T13:16:23.472Z,10.24
2018-07-03T13:18:52.818Z,7.57
2018-07-03T13:21:22.228Z,7.07
2018-07-03T13:23:51.532Z,7.02
2018-07-03T13:26:20.718Z,7.68
2018-07-03T13:28:49.637Z,6.22
2018-07-03T13:31:18.594Z,6.69
2018-07-03T13:33:48.033Z,7.30
2018-07-03T13:36:17.278Z,7.80
2018-07-03T13:38:46.506Z,7.56
2018-07-03T13:41:15.795Z,7.65
2018-07-03T13:43:45.117Z,7.89
2018-07-03T13:46:14.428Z,7.39
2018-07-03T13:48:43.780Z,6.75
2018-07-03T13:51:13.026Z,6.60
2018-07-03T13:53:42.486Z,7.49
2018-07-03T13:56:12.130Z,7.35
2018-07-03T13:58:41.298Z,8.75
2018-07-03T14:01:10.645Z,9.53
2018-07-03T14:03:39.906Z,9.39
2018-07-03T14:06:09.277Z,9.33
2018-07-03T14:08:38.576Z,7.93
2018-07-03T14:11:08.344Z,8.79
2018-07-03T14:13:37.502Z,7.74
2018-07-03T14:16:06.838Z,7.15
2018-07-03T14:18:36.206Z,7.74
2018-07-03T14:21:05.552Z,7.56
2018-07-03T14:23:34.810Z,8.13
2018-07-03T14:26:04.064Z,7.38
2018-07-03T14:28:33.325Z,7.42
2018-07-03T14:31:02.580Z,7.94
2018-07-03T14:33:31.927Z,7.10
2018-07-03T14:36:01.226Z,7.39
2018-07-03T14:38:30.579Z,8.37
2018-07-03T14:40:59.828Z,8.90
2018-07-03T14:43:29.072Z,9.62
2018-07-03T14:45:58.344Z,8.55
2018-07-03T14:48:27.662Z,9.06
2018-07-03T14:50:56.923Z,9.24
2018-07-03T14:53:26.182Z,9.23
2018-07-03T14:55:55.449Z,9.17
2018-07-03T14:58:25.356Z,9.78
2018-07-03T15:00:54.509Z,9.33
2018-07-03T15:03:23.879Z,10.28
2018-07-03T15:05:53.255Z,9.78
2018-07-03T15:08:22.571Z,9.22
2018-07-03T15:10:51.843Z,9.44
2018-07-03T15:13:21.234Z,10.36
2018-07-03T15:15:50.430Z,10.70
2018-07-03T15:18:19.771Z,10.60
2018-07-03T15:20:49.027Z,9.60
2018-07-03T15:23:18.266Z,9.71
2018-07-03T15:25:47.538Z,9.05
2018-07-03T15:28:16.747Z,10.27
2018-07-03T15:30:45.740Z,10.98
2018-07-03T15:33:14.764Z,11.92
2018-07-03T15:35:43.698Z,11.28
2018-07-03T15:38:12.662Z,10.47
2018-07-03T15:40:41.617Z,10.41
2018-07-03T15:43:11.046Z,10.44
2018-07-03T15:45:40.311Z,11.96
2018-07-03T15:48:09.775Z,11.38
2018-07-03T15:50:39.004Z,10.45
2018-07-03T15:53:08.316Z,10.42
2018-07-03T15:55:37.954Z,11.79
2018-07-03T15:58:07.554Z,12.17
2018-07-03T16:00:37.375Z,11.34
2018-07-03T16:03:17.527Z,10.32
2018-07-03T16:06:57.026Z,11.96
2018-07-03T16:09:26.434Z,11.54
2018-07-03T16:11:55.649Z,10.78
2018-07-03T16:14:24.985Z,10.70
2018-07-03T16:16:54.350Z,11.08
2018-07-03T16:20:28.594Z,10.37
2018-07-03T16:22:57.946Z,11.10
2018-07-03T16:25:27.295Z,9.81
2018-07-03T16:27:56.466Z,10.06
2018-07-03T16:30:25.685Z,10.16
2018-07-03T16:32:54.961Z,9.51
2018-07-03T16:35:24.212Z,10.25
2018-07-03T16:37:53.454Z,9.59
2018-07-03T16:40:22.802Z,9.95
2018-07-03T16:42:52.084Z,10.17
2018-07-03T16:45:21.535Z,10.17
2018-07-03T16:47:50.877Z,10.43
2018-07-03T16:50:20.228Z,10.93
2018-07-03T16:52:49.504Z,10.80
2018-07-03T16:55:18.824Z,11.22
2018-07-03T16:57:48.074Z,11.33
2018-07-03T17:00:22.810Z,12.26
2018-07-03T17:02:52.133Z,11.96
2018-07-03T17:05:21.746Z,12.33
2018-07-03T17:07:51.242Z,12.13
2018-07-03T17:10:20.546Z,12.98
2018-07-03T17:12:49.863Z,13.13
2018-07-03T17:15:19.094Z,13.19
2018-07-03T17:17:48.354Z,13.88
2018-07-03T17:20:17.706Z,13.99
2018-07-03T17:22:46.943Z,14.71
2018-07-03T17:25:16.304Z,14.45
2018-07-03T17:27:45.565Z,14.02
2018-07-03T17:30:14.794Z,13.33
2018-07-03T17:32:44.162Z,14.48
2018-07-03T17:35:13.408Z,14.81
2018-07-03T17:37:42.642Z,12.80
2018-07-03T17:40:23.211Z,14.33
2018-07-03T17:44:02.247Z,13.24
2018-07-03T17:46:31.545Z,12.50
2018-07-03T17:49:00.920Z,12.37
2018-07-03T17:51:30.245Z,11.55
2018-07-03T17:53:59.614Z,11.90
2018-07-03T17:56:28.924Z,11.57
2018-07-03T17:58:58.410Z,11.36
2018-07-03T18:01:27.609Z,12.61
2018-07-03T18:03:56.853Z,11.38
2018-07-03T18:06:26.146Z,11.36
2018-07-03T18:08:55.472Z,11.66
2018-07-03T18:11:24.826Z,12.16
2018-07-03T18:13:54.183Z,13.37
2018-07-03T18:16:23.439Z,15.58
2018-07-03T18:18:57.784Z,15.81
2018-07-03T18:21:27.264Z,15.29
2018-07-03T18:23:56.683Z,15.31
2018-07-03T18:26:25.965Z,15.38
2018-07-03T18:28:55.304Z,14.65
2018-07-03T18:31:24.543Z,15.18
2018-07-03T18:33:53.787Z,14.94
2018-07-03T18:36:23.190Z,15.17
2018-07-03T18:38:52.581Z,15.06
2018-07-03T18:41:21.904Z,15.05
2018-07-03T18:43:51.311Z,14.17
2018-07-03T18:46:20.585Z,14.25
2018-07-03T18:48:50.011Z,15.06
2018-07-03T18:51:19.353Z,14.59
2018-07-03T18:53:48.710Z,15.03
2018-07-03T18:56:17.990Z,15.03
2018-07-03T18:58:47.423Z,15.24
2018-07-03T19:01:16.775Z,14.88
2018-07-03T19:03:46.146Z,15.01
2018-07-03T19:06:15.366Z,15.05
2018-07-03T19:08:44.784Z,15.17
2018-07-03T19:11:14.089Z,15.41
2018-07-03T19:13:43.423Z,15.57
2018-07-03T19:16:12.667Z,16.00
2018-07-03T19:18:41.872Z,16.52
2018-07-03T19:21:11.108Z,15.81
2018-07-03T19:23:40.465Z,16.19
2018-07-03T19:26:09.886Z,16.17
2018-07-03T19:28:39.196Z,16.17
2018-07-03T19:31:08.515Z,16.54
2018-07-03T19:33:37.919Z,16.87
2018-07-03T19:36:07.327Z,16.46
2018-07-03T19:38:36.496Z,16.34
2018-07-03T19:41:05.630Z,16.67
2018-07-03T19:43:36.075Z,16.10
2018-07-03T19:46:05.927Z,16.18
2018-07-03T19:48:35.224Z,16.40
2018-07-03T19:51:04.501Z,17.00
2018-07-03T19:53:33.720Z,17.17
2018-07-03T19:56:02.978Z,17.56
2018-07-03T19:58:32.235Z,16.61
2018-07-03T20:01:01.456Z,17.88
2018-07-03T20:03:30.713Z,19.20
2018-07-03T20:06:00.057Z,19.34
2018-07-03T20:08:29.316Z,18.41
2018-07-03T20:10:58.567Z,18.04
2018-07-03T20:13:27.807Z,18.13
2018-07-03T20:15:57.064Z,17.48
2018-07-03T20:18:26.306Z,18.21
2018-07-03T20:20:55.558Z,18.65
2018-07-03T20:23:24.813Z,18.98
2018-07-03T20:25:54.150Z,18.87
2018-07-03T20:28:23.479Z,18.29
2018-07-03T20:30:52.759Z,18.46
2018-07-03T20:33:22.006Z,18.42
2018-07-03T20:35:51.267Z,18.27
2018-07-03T20:38:20.511Z,18.25
2018-07-03T20:40:54.555Z,17.98
2018-07-03T20:43:24.309Z,18.97
2018-07-03T20:45:53.686Z,19.15
2018-07-03T20:48:23.402Z,19.87
2018-07-03T20:50:52.655Z,19.15
2018-07-03T20:53:22.092Z,19.30
2018-07-03T20:55:51.413Z,19.81
2018-07-03T20:58:21.030Z,19.63
2018-07-03T21:00:50.204Z,20.00
2018-07-03T21:03:20.715Z,20.21
2018-07-03T21:05:50.315Z,19.50
2018-07-03T21:08:19.406Z,20.65
2018-07-03T21:10:48.644Z,20.49
2018-07-03T21:13:18.038Z,20.67
2018-07-03T21:15:47.519Z,21.22
2018-07-03T21:18:16.832Z,22.59
2018-07-03T21:20:45.897Z,23.34
2018-07-03T21:23:15.250Z,23.54
2018-07-03T21:25:44.502Z,24.26
2018-07-03T21:28:13.871Z,23.78
2018-07-03T21:30:43.125Z,23.17
2018-07-03T21:33:12.337Z,23.28
2018-07-03T21:35:41.735Z,23.38
2018-07-03T21:38:11.113Z,23.30
2018-07-03T21:40:40.314Z,24.19
2018-07-03T21:43:09.947Z,24.15
2018-07-03T21:45:39.210Z,24.01
2018-07-03T21:48:08.635Z,24.55
2018-07-03T21:50:38.033Z,24.01
2018-07-03T21:53:09.214Z,24.98
2018-07-03T21:55:38.708Z,25.14
2018-07-03T21:58:08.008Z,24.55
2018-07-03T22:00:40.599Z,24.54
2018-07-03T22:03:11.082Z,23.93
2018-07-03T22:05:40.954Z,24.23
2018-07-03T22:08:10.238Z,23.59
2018-07-03T22:10:39.586Z,23.38
2018-07-03T22:13:08.784Z,23.91
2018-07-03T22:15:38.029Z,24.33
2018-07-03T22:18:07.274Z,24.24
2018-07-03T22:20:36.534Z,24.62
2018-07-03T22:23:05.802Z,24.85
2018-07-03T22:25:35.038Z,24.62
2018-07-03T22:28:04.288Z,25.24
2018-07-03T22:30:33.545Z,25.00
2018-07-03T22:33:02.802Z,25.28
2018-07-03T22:35:32.138Z,25.80
2018-07-03T22:38:01.406Z,25.90
2018-07-03T22:40:30.626Z,26.20
2018-07-03T22:42:59.914Z,26.17
2018-07-03T22:45:29.430Z,26.53
2018-07-03T22:47:58.832Z,27.48
2018-07-03T22:50:28.121Z,28.90
2018-07-03T22:52:57.289Z,31.01
2018-07-03T22:55:26.631Z,31.36
2018-07-03T22:57:55.896Z,30.61
2018-07-03T23:00:25.268Z,30.21
2018-07-03T23:02:54.948Z,30.34
2018-07-03T23:05:24.659Z,30.63
2018-07-03T23:07:54.158Z,29.74
2018-07-03T23:10:23.469Z,28.63
2018-07-03T23:12:52.711Z,28.29
2018-07-03T23:15:22.103Z,27.98
2018-07-03T23:17:51.314Z,28.72
2018-07-03T23:20:20.673Z,30.81
2018-07-03T23:22:50.059Z,31.60
2018-07-03T23:25:19.318Z,30.19
2018-07-03T23:27:48.470Z,30.53
2018-07-03T23:30:17.724Z,29.50
2018-07-03T23:32:47.007Z,29.75
2018-07-03T23:35:16.223Z,29.80
2018-07-03T23:37:45.449Z,29.57
2018-07-03T23:40:14.603Z,29.41
2018-07-03T23:42:43.902Z,28.90
2018-07-03T23:45:13.156Z,28.42
2018-07-03T23:47:53.309Z,29.08
2018-07-03T23:50:33.370Z,29.36
2018-07-03T23:53:13.620Z,29.06
2018-07-03T23:55:53.878Z,28.78
2018-07-03T23:58:34.236Z,28.93
